Time;durP1;ratioP1;P1;durP2;ratioP2;P2;SDS_P1;SDS_P2;PMS_P1;PMS_P2;Temp;Humidity;BMP_temperature;BMP_pressure;BME280_temperature;BME280_humidity;BME280_pressure;Samples;Min_cycle;Max_cycle;Signal;HPM_P1;HPM_P2
2022/07/28 00:01:43;;;;;;;;;;;23.80;46.30;;;;;;491630;240;1119;-71
2022/07/28 00:03:45;;;;;;;;;;;23.80;46.40;;;;;;491651;240;1136;-72
2022/07/28 00:05:47;;;;;;;;;;;23.80;46.30;;;;;;491616;240;1092;-72
2022/07/28 00:07:48;;;;;;;;;;;23.90;46.20;;;;;;491598;240;1211;-72
2022/07/28 00:09:49;;;;;;;;;;;23.90;46.00;;;;;;491641;240;1215;-71
2022/07/28 00:11:50;;;;;;;;;;;23.90;46.00;;;;;;491633;240;1187;-72
2022/07/28 00:13:52;;;;;;;;;;;23.90;46.00;;;;;;491670;240;1103;-72
2022/07/28 00:15:53;;;;;;;;;;;23.90;46.20;;;;;;491667;240;1132;-72
2022/07/28 00:17:54;;;;;;;;;;;23.80;46.20;;;;;;491599;240;1211;-72
2022/07/28 00:19:56;;;;;;;;;;;23.90;46.00;;;;;;491650;240;2128;-72
2022/07/28 00:21:57;;;;;;;;;;;23.80;46.30;;;;;;491718;240;1119;-72
2022/07/28 00:23:58;;;;;;;;;;;23.80;46.20;;;;;;491629;240;1090;-72
2022/07/28 00:26:00;;;;;;;;;;;23.90;46.20;;;;;;491609;240;1180;-72
2022/07/28 00:28:01;;;;;;;;;;;23.70;46.20;;;;;;491631;240;974;-72
2022/07/28 00:30:02;;;;;;;;;;;23.80;46.20;;;;;;491684;240;1048;-72
2022/07/28 00:32:04;;;;;;;;;;;23.80;46.10;;;;;;491661;240;1138;-72
2022/07/28 00:34:05;;;;;;;;;;;23.90;46.10;;;;;;491675;240;995;-72
2022/07/28 00:36:07;;;;;;;;;;;23.70;46.20;;;;;;491685;240;1178;-71
2022/07/28 00:38:08;;;;;;;;;;;23.80;46.20;;;;;;491606;240;1210;-72
2022/07/28 00:40:09;;;;;;;;;;;23.60;46.40;;;;;;491723;240;2191;-72
2022/07/28 00:42:11;;;;;;;;;;;23.60;46.50;;;;;;491587;240;1244;-72
2022/07/28 00:44:12;;;;;;;;;;;23.70;46.40;;;;;;491713;240;1195;-72
2022/07/28 00:46:14;;;;;;;;;;;23.80;46.20;;;;;;491648;240;1267;-72
2022/07/28 00:48:15;;;;;;;;;;;23.90;46.10;;;;;;491679;240;1168;-72
2022/07/28 00:50:18;;;;;;;;;;;23.80;46.20;;;;;;491696;240;1171;-72
2022/07/28 00:52:18;;;;;;;;;;;23.90;46.00;;;;;;491670;240;2290;-71
2022/07/28 00:54:19;;;;;;;;;;;23.90;45.90;;;;;;491651;240;1132;-71
2022/07/28 00:56:20;;;;;;;;;;;23.90;45.90;;;;;;491664;240;1897;-72
2022/07/28 00:58:21;;;;;;;;;;;23.90;45.90;;;;;;491662;240;1475;-72
2022/07/28 01:00:23;;;;;;;;;;;23.80;46.00;;;;;;491635;240;2176;-72
2022/07/28 01:02:24;;;;;;;;;;;23.90;46.10;;;;;;491544;240;1057;-71
2022/07/28 01:04:26;;;;;;;;;;;23.90;46.00;;;;;;491681;240;1079;-72
2022/07/28 01:06:27;;;;;;;;;;;23.90;45.90;;;;;;491623;240;1161;-72
2022/07/28 01:08:28;;;;;;;;;;;23.90;45.80;;;;;;491649;240;1137;-72
2022/07/28 01:10:30;;;;;;;;;;;24.00;45.80;;;;;;491637;240;1141;-72
2022/07/28 01:12:31;;;;;;;;;;;23.90;45.80;;;;;;491725;240;1198;-71
2022/07/28 01:14:32;;;;;;;;;;;24.00;45.80;;;;;;491656;240;1215;-72
2022/07/28 01:16:34;;;;;;;;;;;23.90;45.70;;;;;;491654;240;1135;-72
2022/07/28 01:18:35;;;;;;;;;;;24.00;45.80;;;;;;491636;240;2133;-72
2022/07/28 01:20:36;;;;;;;;;;;24.00;45.80;;;;;;491673;240;1124;-72
2022/07/28 01:22:37;;;;;;;;;;;23.90;45.90;;;;;;491533;240;1106;-72
2022/07/28 01:24:39;;;;;;;;;;;24.00;45.80;;;;;;491670;240;1198;-72
2022/07/28 01:26:40;;;;;;;;;;;24.00;45.70;;;;;;491632;240;1279;-72
2022/07/28 01:28:42;;;;;;;;;;;24.00;45.80;;;;;;491697;240;1167;-72
2022/07/28 01:30:43;;;;;;;;;;;23.90;45.80;;;;;;491635;240;1129;-72
2022/07/28 01:32:44;;;;;;;;;;;23.80;45.90;;;;;;491716;240;1147;-72
2022/07/28 01:34:46;;;;;;;;;;;23.90;45.90;;;;;;491669;240;1210;-72
2022/07/28 01:36:47;;;;;;;;;;;23.90;45.80;;;;;;491603;240;1156;-72
2022/07/28 01:38:49;;;;;;;;;;;23.90;45.80;;;;;;491698;240;2187;-72
2022/07/28 01:40:50;;;;;;;;;;;23.80;46.10;;;;;;491613;240;1251;-72
2022/07/28 01:42:51;;;;;;;;;;;23.80;46.00;;;;;;491661;240;1198;-72
2022/07/28 01:44:52;;;;;;;;;;;23.90;46.00;;;;;;491602;240;1095;-72
2022/07/28 01:46:54;;;;;;;;;;;24.00;45.90;;;;;;491631;240;1100;-72
2022/07/28 01:48:55;;;;;;;;;;;23.90;45.80;;;;;;491640;240;1070;-72
2022/07/28 01:50:57;;;;;;;;;;;23.80;46.00;;;;;;491588;240;952;-72
2022/07/28 01:52:58;;;;;;;;;;;23.90;46.00;;;;;;491573;240;1116;-72
2022/07/28 01:54:59;;;;;;;;;;;23.80;46.00;;;;;;491626;240;950;-72
2022/07/28 01:57:01;;;;;;;;;;;23.80;46.00;;;;;;491585;240;1239;-72
2022/07/28 01:59:02;;;;;;;;;;;23.90;46.00;;;;;;491629;240;2117;-72
2022/07/28 02:01:03;;;;;;;;;;;23.90;45.70;;;;;;491633;240;1105;-72
2022/07/28 02:03:05;;;;;;;;;;;23.90;45.80;;;;;;491671;240;944;-72
2022/07/28 02:05:07;;;;;;;;;;;23.90;45.90;;;;;;491687;240;923;-72
2022/07/28 02:07:08;;;;;;;;;;;23.90;46.00;;;;;;491653;240;1113;-73
2022/07/28 02:09:10;;;;;;;;;;;23.90;45.80;;;;;;491681;240;949;-72
2022/07/28 02:13:30;;;;;;;;;;;23.90;45.80;;;;;;491676;242;1194;-72
2022/07/28 02:15:31;;;;;;;;;;;23.90;45.70;;;;;;491722;240;978;-72
2022/07/28 02:17:33;;;;;;;;;;;23.90;45.90;;;;;;491635;240;1125;-72
2022/07/28 02:19:34;;;;;;;;;;;24.00;45.70;;;;;;491597;240;2113;-72
2022/07/28 02:21:35;;;;;;;;;;;24.00;45.60;;;;;;491604;240;1539;-71
2022/07/28 02:23:37;;;;;;;;;;;24.00;45.50;;;;;;491630;240;1206;-72
2022/07/28 02:25:38;;;;;;;;;;;24.00;45.50;;;;;;491653;240;1117;-72
2022/07/28 02:27:39;;;;;;;;;;;24.00;45.50;;;;;;491552;240;1149;-72
2022/07/28 02:29:41;;;;;;;;;;;23.90;45.60;;;;;;491727;240;1204;-72
2022/07/28 02:31:42;;;;;;;;;;;24.00;45.80;;;;;;491613;240;1166;-72
2022/07/28 02:33:43;;;;;;;;;;;23.90;45.90;;;;;;491659;240;1167;-72
2022/07/28 02:35:45;;;;;;;;;;;23.90;45.80;;;;;;491660;240;1244;-71
2022/07/28 02:37:46;;;;;;;;;;;23.90;45.90;;;;;;491594;240;1222;-71
2022/07/28 02:39:48;;;;;;;;;;;24.00;45.80;;;;;;491706;240;2191;-71
2022/07/28 02:41:49;;;;;;;;;;;23.90;45.90;;;;;;491626;240;1244;-71
2022/07/28 02:43:50;;;;;;;;;;;23.90;45.80;;;;;;491689;240;1226;-72
2022/07/28 02:45:52;;;;;;;;;;;23.90;45.70;;;;;;491699;240;1137;-72
2022/07/28 02:47:53;;;;;;;;;;;24.00;45.60;;;;;;491673;240;1116;-72
2022/07/28 02:49:54;;;;;;;;;;;23.90;45.80;;;;;;491679;240;1184;-72
2022/07/28 02:51:56;;;;;;;;;;;23.90;45.80;;;;;;491651;240;1096;-72
2022/07/28 02:53:57;;;;;;;;;;;23.90;45.90;;;;;;491640;240;1108;-72
2022/07/28 02:55:58;;;;;;;;;;;23.80;45.90;;;;;;491598;240;1203;-72
2022/07/28 02:58:00;;;;;;;;;;;23.80;46.10;;;;;;491684;240;1236;-72
2022/07/28 03:00:01;;;;;;;;;;;23.70;46.10;;;;;;491704;240;2112;-72
2022/07/28 03:02:02;;;;;;;;;;;23.80;46.10;;;;;;491621;240;1083;-71
2022/07/28 03:04:04;;;;;;;;;;;23.70;46.00;;;;;;491734;240;1109;-72
2022/07/28 03:06:05;;;;;;;;;;;23.80;46.00;;;;;;491632;240;1186;-72
2022/07/28 03:08:06;;;;;;;;;;;23.70;46.20;;;;;;491670;240;1012;-72
2022/07/28 03:10:08;;;;;;;;;;;23.90;46.20;;;;;;491692;240;1031;-72
2022/07/28 03:12:09;;;;;;;;;;;23.90;46.00;;;;;;491617;240;1095;-72
2022/07/28 03:14:11;;;;;;;;;;;24.00;45.90;;;;;;491715;240;1210;-72
2022/07/28 03:16:12;;;;;;;;;;;24.00;45.80;;;;;;491610;240;926;-71
2022/07/28 03:18:14;;;;;;;;;;;23.90;45.80;;;;;;491659;240;1161;-72
2022/07/28 03:20:15;;;;;;;;;;;24.00;45.80;;;;;;491671;240;2188;-71
2022/07/28 03:22:16;;;;;;;;;;;24.10;45.60;;;;;;491635;240;1267;-72
2022/07/28 03:24:18;;;;;;;;;;;24.10;45.50;;;;;;491692;240;1096;-71
2022/07/28 03:26:19;;;;;;;;;;;24.00;45.60;;;;;;491569;240;1274;-72
2022/07/28 03:28:20;;;;;;;;;;;24.10;45.60;;;;;;491613;240;1234;-72
2022/07/28 03:30:22;;;;;;;;;;;24.10;45.50;;;;;;491691;240;1088;-72
2022/07/28 03:32:23;;;;;;;;;;;24.20;45.50;;;;;;491607;240;1198;-72
2022/07/28 03:34:24;;;;;;;;;;;24.10;45.40;;;;;;491642;240;1211;-72
2022/07/28 03:36:26;;;;;;;;;;;24.10;45.50;;;;;;491659;240;1174;-72
2022/07/28 03:38:27;;;;;;;;;;;24.00;45.60;;;;;;491642;240;1105;-72
2022/07/28 03:40:28;;;;;;;;;;;24.00;45.60;;;;;;491737;240;2187;-72
2022/07/28 03:42:30;;;;;;;;;;;23.90;45.80;;;;;;491620;240;1071;-72
2022/07/28 03:44:31;;;;;;;;;;;24.00;45.80;;;;;;491626;240;1180;-72
2022/07/28 03:46:33;;;;;;;;;;;24.00;45.70;;;;;;491669;240;1235;-72
2022/07/28 03:48:34;;;;;;;;;;;24.00;45.70;;;;;;491632;240;1265;-72
2022/07/28 03:50:35;;;;;;;;;;;24.00;45.60;;;;;;491609;240;1153;-72
2022/07/28 03:52:36;;;;;;;;;;;24.10;45.50;;;;;;491568;240;1176;-72
2022/07/28 03:54:38;;;;;;;;;;;24.00;45.50;;;;;;491524;240;1134;-72
2022/07/28 03:56:39;;;;;;;;;;;24.00;45.50;;;;;;491570;240;1219;-72
2022/07/28 03:58:40;;;;;;;;;;;24.00;45.50;;;;;;491697;240;1210;-72
2022/07/28 04:00:42;;;;;;;;;;;24.00;45.70;;;;;;491440;240;2120;-72
2022/07/28 04:02:43;;;;;;;;;;;23.80;45.80;;;;;;491677;240;1177;-72
2022/07/28 04:04:44;;;;;;;;;;;23.90;46.00;;;;;;491596;240;1216;-74
2022/07/28 04:06:46;;;;;;;;;;;23.80;45.70;;;;;;491499;240;1160;-74
2022/07/28 04:08:47;;;;;;;;;;;23.80;46.00;;;;;;491596;240;1140;-74
2022/07/28 04:10:49;;;;;;;;;;;23.90;45.90;;;;;;491471;240;1183;-74
2022/07/28 04:12:50;;;;;;;;;;;23.90;45.90;;;;;;491485;240;1154;-74
2022/07/28 04:14:52;;;;;;;;;;;23.90;45.80;;;;;;491546;240;1177;-74
2022/07/28 04:16:53;;;;;;;;;;;23.90;45.70;;;;;;491468;240;1102;-74
2022/07/28 04:18:54;;;;;;;;;;;24.00;45.50;;;;;;491496;240;1098;-74
2022/07/28 04:20:56;;;;;;;;;;;24.10;45.40;;;;;;491451;240;2172;-73
2022/07/28 04:22:57;;;;;;;;;;;24.00;45.60;;;;;;491334;240;1048;-73
2022/07/28 04:24:58;;;;;;;;;;;23.90;45.80;;;;;;491551;240;1257;-73
2022/07/28 04:27:00;;;;;;;;;;;23.90;45.80;;;;;;491494;240;946;-73
2022/07/28 04:29:01;;;;;;;;;;;24.00;45.60;;;;;;491444;240;1211;-74
2022/07/28 04:31:03;;;;;;;;;;;23.90;45.70;;;;;;491367;240;939;-74
2022/07/28 04:33:04;;;;;;;;;;;23.90;45.70;;;;;;491312;240;1118;-74
2022/07/28 04:35:05;;;;;;;;;;;24.00;45.50;;;;;;491461;240;960;-74
2022/07/28 04:37:08;;;;;;;;;;;24.00;45.50;;;;;;491340;240;1143;-74
2022/07/28 04:39:09;;;;;;;;;;;24.00;45.50;;;;;;491400;240;2269;-74
2022/07/28 04:41:09;;;;;;;;;;;24.10;45.50;;;;;;491268;240;2187;-74
2022/07/28 04:43:11;;;;;;;;;;;24.10;45.40;;;;;;491349;240;1207;-74
2022/07/28 04:45:12;;;;;;;;;;;24.00;45.40;;;;;;491449;240;1212;-74
2022/07/28 04:47:13;;;;;;;;;;;24.00;45.50;;;;;;491408;240;1187;-74
2022/07/28 04:49:15;;;;;;;;;;;24.10;45.50;;;;;;491432;240;1175;-74
2022/07/28 04:51:16;;;;;;;;;;;24.00;45.60;;;;;;491384;240;1327;-73
2022/07/28 04:53:18;;;;;;;;;;;24.00;45.60;;;;;;491255;240;1166;-73
2022/07/28 04:55:19;;;;;;;;;;;24.00;45.50;;;;;;491277;240;1131;-73
2022/07/28 04:57:21;;;;;;;;;;;24.00;45.50;;;;;;491260;240;1174;-74
2022/07/28 04:59:22;;;;;;;;;;;24.00;45.50;;;;;;491399;240;1182;-74
2022/07/28 05:01:23;;;;;;;;;;;24.00;45.50;;;;;;491366;240;2179;-74
2022/07/28 05:03:25;;;;;;;;;;;24.00;45.60;;;;;;491408;240;1269;-74
2022/07/28 05:05:26;;;;;;;;;;;23.90;45.70;;;;;;491355;240;1078;-74
2022/07/28 05:07:27;;;;;;;;;;;23.70;45.90;;;;;;491261;240;1144;-73
2022/07/28 05:09:29;;;;;;;;;;;23.70;46.10;;;;;;491353;240;1197;-73
2022/07/28 05:11:30;;;;;;;;;;;23.80;46.00;;;;;;491425;240;1024;-73
2022/07/28 05:13:32;;;;;;;;;;;23.80;45.90;;;;;;491395;240;1027;-73
2022/07/28 05:15:33;;;;;;;;;;;23.70;45.90;;;;;;491399;240;2278;-74
2022/07/28 05:17:35;;;;;;;;;;;23.70;46.10;;;;;;491282;240;1106;-74
2022/07/28 05:19:36;;;;;;;;;;;23.60;46.00;;;;;;491312;240;2112;-74
2022/07/28 05:21:37;;;;;;;;;;;23.50;46.40;;;;;;491259;240;2176;-73
2022/07/28 05:23:38;;;;;;;;;;;23.50;46.70;;;;;;491287;240;1160;-73
2022/07/28 05:25:40;;;;;;;;;;;23.50;46.50;;;;;;491277;240;1070;-73
2022/07/28 05:27:41;;;;;;;;;;;23.60;46.50;;;;;;491318;240;1360;-73
2022/07/28 05:29:42;;;;;;;;;;;23.70;46.30;;;;;;491273;240;1252;-73
2022/07/28 05:31:44;;;;;;;;;;;23.70;46.10;;;;;;491243;240;1092;-73
2022/07/28 05:33:45;;;;;;;;;;;23.60;46.50;;;;;;491322;240;1143;-74
2022/07/28 05:35:46;;;;;;;;;;;23.50;46.70;;;;;;491389;240;1182;-73
2022/07/28 05:37:48;;;;;;;;;;;23.70;46.50;;;;;;491323;240;1112;-74
2022/07/28 05:39:49;;;;;;;;;;;23.80;46.20;;;;;;491252;240;1187;-74
2022/07/28 05:41:50;;;;;;;;;;;23.70;46.20;;;;;;491279;240;2180;-74
2022/07/28 05:43:52;;;;;;;;;;;23.80;46.30;;;;;;491337;240;948;-75
2022/07/28 05:45:53;;;;;;;;;;;23.80;46.10;;;;;;491270;240;1212;-73
2022/07/28 05:47:54;;;;;;;;;;;23.70;46.20;;;;;;491336;240;1019;-73
2022/07/28 05:49:56;;;;;;;;;;;23.80;46.30;;;;;;491348;240;1131;-73
2022/07/28 05:51:57;;;;;;;;;;;23.80;46.20;;;;;;491306;240;1068;-73
2022/07/28 05:53:58;;;;;;;;;;;23.90;46.20;;;;;;491281;240;1141;-73
2022/07/28 05:55:59;;;;;;;;;;;23.90;46.10;;;;;;491224;240;997;-73
2022/07/28 05:58:01;;;;;;;;;;;24.00;46.00;;;;;;491284;240;1039;-73
2022/07/28 06:00:02;;;;;;;;;;;23.90;45.90;;;;;;491257;240;1441;-73
2022/07/28 06:02:04;;;;;;;;;;;24.00;45.90;;;;;;491129;240;2184;-73
2022/07/28 06:04:05;;;;;;;;;;;24.00;45.90;;;;;;491104;240;2185;-73
2022/07/28 06:06:07;;;;;;;;;;;24.00;45.90;;;;;;491117;240;1175;-74
2022/07/28 06:08:07;;;;;;;;;;;23.90;46.00;;;;;;491138;240;2175;-74
2022/07/28 06:10:09;;;;;;;;;;;23.90;46.20;;;;;;491337;240;1097;-74
2022/07/28 06:12:10;;;;;;;;;;;23.80;46.30;;;;;;491229;240;1147;-74
2022/07/28 06:14:11;;;;;;;;;;;23.90;46.30;;;;;;491220;240;1202;-73
2022/07/28 06:16:13;;;;;;;;;;;23.80;46.40;;;;;;491038;240;1272;-75
2022/07/28 06:18:14;;;;;;;;;;;23.90;46.30;;;;;;491126;240;1131;-73
2022/07/28 06:20:16;;;;;;;;;;;23.90;46.40;;;;;;491208;240;1147;-74
2022/07/28 06:22:17;;;;;;;;;;;23.80;46.50;;;;;;491187;240;2109;-74
2022/07/28 06:24:18;;;;;;;;;;;23.80;46.50;;;;;;491101;240;1112;-74
2022/07/28 06:26:20;;;;;;;;;;;23.70;46.60;;;;;;491153;240;2299;-74
2022/07/28 06:28:22;;;;;;;;;;;23.80;46.60;;;;;;491054;240;1185;-73
2022/07/28 06:30:23;;;;;;;;;;;23.90;46.60;;;;;;490861;240;1209;-74
2022/07/28 06:32:24;;;;;;;;;;;23.90;46.50;;;;;;490840;240;1103;-74
2022/07/28 06:34:26;;;;;;;;;;;23.90;46.50;;;;;;490825;240;1176;-74
2022/07/28 06:36:27;;;;;;;;;;;23.90;46.50;;;;;;490839;240;1169;-74
2022/07/28 06:38:30;;;;;;;;;;;23.90;46.30;;;;;;490794;240;1235;-74
2022/07/28 06:40:30;;;;;;;;;;;24.00;46.30;;;;;;490894;240;2192;-74
2022/07/28 06:42:31;;;;;;;;;;;23.90;46.30;;;;;;490949;240;1153;-74
2022/07/28 06:44:32;;;;;;;;;;;24.00;46.40;;;;;;490846;240;1146;-74
2022/07/28 06:46:34;;;;;;;;;;;24.00;46.40;;;;;;490874;240;1227;-74
2022/07/28 06:48:38;;;;;;;;;;;24.00;46.40;;;;;;490880;240;1145;-74
2022/07/28 06:50:38;;;;;;;;;;;24.10;46.40;;;;;;490988;240;2204;-74
2022/07/28 06:52:39;;;;;;;;;;;24.00;46.30;;;;;;490899;240;1186;-74
2022/07/28 06:54:40;;;;;;;;;;;24.00;46.40;;;;;;490927;240;1170;-74
2022/07/28 06:56:42;;;;;;;;;;;24.10;46.30;;;;;;490986;240;1121;-74
2022/07/28 06:58:43;;;;;;;;;;;24.10;46.20;;;;;;490940;240;1259;-74
2022/07/28 07:00:44;;;;;;;;;;;24.10;46.20;;;;;;490915;240;2204;-74
2022/07/28 07:02:46;;;;;;;;;;;24.10;46.30;;;;;;490873;240;1087;-74
2022/07/28 07:04:47;;;;;;;;;;;24.10;46.30;;;;;;490807;241;1238;-74
2022/07/28 07:06:48;;;;;;;;;;;24.10;46.30;;;;;;490565;240;1027;-74
2022/07/28 07:08:50;;;;;;;;;;;24.10;46.30;;;;;;490802;240;1089;-74
2022/07/28 07:10:51;;;;;;;;;;;24.00;46.40;;;;;;490783;240;1148;-74
2022/07/28 07:12:52;;;;;;;;;;;24.00;46.40;;;;;;490879;240;1317;-74
2022/07/28 07:14:54;;;;;;;;;;;24.10;46.40;;;;;;490846;240;993;-74
2022/07/28 07:16:55;;;;;;;;;;;24.10;46.40;;;;;;490877;240;1177;-74
2022/07/28 07:18:56;;;;;;;;;;;24.10;46.40;;;;;;490777;240;1146;-74
2022/07/28 07:20:57;;;;;;;;;;;24.10;46.40;;;;;;490765;240;2191;-74
2022/07/28 07:22:59;;;;;;;;;;;24.10;46.40;;;;;;490710;240;1070;-74
2022/07/28 07:25:00;;;;;;;;;;;24.10;46.40;;;;;;490815;240;1000;-74
2022/07/28 07:27:01;;;;;;;;;;;24.10;46.40;;;;;;490747;240;1145;-74
2022/07/28 07:29:03;;;;;;;;;;;24.10;46.30;;;;;;490767;240;1107;-73
2022/07/28 07:31:04;;;;;;;;;;;24.20;46.40;;;;;;490738;240;1226;-74
2022/07/28 07:33:06;;;;;;;;;;;24.10;46.40;;;;;;490839;240;1060;-73
2022/07/28 07:35:07;;;;;;;;;;;24.10;46.50;;;;;;490805;240;1097;-74
2022/07/28 07:37:12;;;;;;;;;;;24.20;46.40;;;;;;490872;240;1047;-74
2022/07/28 07:39:10;;;;;;;;;;;24.20;46.40;;;;;;490901;240;2261;-74
2022/07/28 07:41:11;;;;;;;;;;;24.20;46.40;;;;;;490891;240;2176;-74
2022/07/28 07:43:13;;;;;;;;;;;24.10;46.40;;;;;;490933;240;1301;-74
2022/07/28 07:45:14;;;;;;;;;;;24.10;46.50;;;;;;490694;240;1129;-74
2022/07/28 07:47:15;;;;;;;;;;;24.10;46.60;;;;;;490763;240;1189;-74
2022/07/28 07:49:17;;;;;;;;;;;24.10;46.60;;;;;;490661;240;1156;-74
2022/07/28 07:51:18;;;;;;;;;;;24.10;46.60;;;;;;490765;240;1087;-74
2022/07/28 07:53:19;;;;;;;;;;;24.10;46.50;;;;;;490759;240;1051;-73
2022/07/28 07:55:21;;;;;;;;;;;24.20;46.50;;;;;;490879;240;1054;-74
2022/07/28 07:57:22;;;;;;;;;;;24.20;46.50;;;;;;490816;240;1107;-74
2022/07/28 07:59:23;;;;;;;;;;;24.20;46.40;;;;;;490861;240;1035;-74
2022/07/28 08:01:25;;;;;;;;;;;24.30;46.30;;;;;;490778;240;2216;-74
2022/07/28 08:03:26;;;;;;;;;;;24.30;46.30;;;;;;490774;240;1124;-74
2022/07/28 08:05:27;;;;;;;;;;;24.30;46.40;;;;;;490666;240;1099;-74
2022/07/28 08:07:29;;;;;;;;;;;24.30;46.40;;;;;;490619;240;1199;-74
2022/07/28 08:09:30;;;;;;;;;;;24.20;46.50;;;;;;490687;240;1158;-74
2022/07/28 08:11:31;;;;;;;;;;;24.30;46.50;;;;;;490672;240;1003;-73
2022/07/28 08:13:33;;;;;;;;;;;24.30;46.40;;;;;;490638;240;1181;-73
2022/07/28 08:15:34;;;;;;;;;;;24.30;46.50;;;;;;490876;240;1043;-73
2022/07/28 08:17:35;;;;;;;;;;;24.30;46.50;;;;;;490856;240;1204;-74
2022/07/28 08:19:37;;;;;;;;;;;24.30;46.50;;;;;;490645;240;1057;-74
2022/07/28 08:21:38;;;;;;;;;;;24.30;46.60;;;;;;490462;240;2200;-74
2022/07/28 08:23:39;;;;;;;;;;;24.30;46.70;;;;;;490512;240;1078;-74
2022/07/28 08:25:43;;;;;;;;;;;24.30;46.70;;;;;;490666;240;1162;-74
2022/07/28 08:27:42;;;;;;;;;;;24.30;46.70;;;;;;490615;240;2215;-74
2022/07/28 08:29:43;;;;;;;;;;;24.30;46.70;;;;;;490665;240;1220;-74
2022/07/28 08:31:45;;;;;;;;;;;24.40;46.60;;;;;;490678;240;1206;-74
2022/07/28 08:33:46;;;;;;;;;;;24.40;46.60;;;;;;490695;240;1115;-74
2022/07/28 08:35:48;;;;;;;;;;;24.40;46.60;;;;;;490673;240;1218;-74
2022/07/28 08:37:49;;;;;;;;;;;24.30;46.80;;;;;;490714;240;1198;-74
2022/07/28 08:39:50;;;;;;;;;;;24.30;46.90;;;;;;490852;240;1204;-73
2022/07/28 08:41:52;;;;;;;;;;;24.30;46.90;;;;;;490819;240;2188;-74
2022/07/28 08:43:53;;;;;;;;;;;24.30;47.00;;;;;;490793;240;1121;-74
2022/07/28 08:45:54;;;;;;;;;;;24.30;46.90;;;;;;490740;240;1094;-74
2022/07/28 08:47:56;;;;;;;;;;;24.30;46.90;;;;;;490694;240;2035;-74
2022/07/28 08:49:58;;;;;;;;;;;24.20;46.90;;;;;;490801;240;1194;-74
2022/07/28 08:51:59;;;;;;;;;;;24.20;47.00;;;;;;490692;240;1060;-74
2022/07/28 08:54:00;;;;;;;;;;;24.30;47.00;;;;;;490840;240;1042;-73
2022/07/28 08:56:02;;;;;;;;;;;24.30;46.90;;;;;;490779;240;1265;-73
2022/07/28 08:58:03;;;;;;;;;;;24.30;46.90;;;;;;490917;240;1205;-73
2022/07/28 09:00:04;;;;;;;;;;;24.30;46.90;;;;;;490804;240;960;-74
2022/07/28 09:02:06;;;;;;;;;;;24.30;46.80;;;;;;490708;240;2192;-73
2022/07/28 09:04:07;;;;;;;;;;;24.30;46.80;;;;;;490816;240;1104;-74
2022/07/28 09:06:08;;;;;;;;;;;24.30;46.90;;;;;;490763;240;1139;-74
2022/07/28 09:08:10;;;;;;;;;;;24.30;46.90;;;;;;490775;240;1402;-74
2022/07/28 09:10:11;;;;;;;;;;;24.40;46.90;;;;;;490733;240;1292;-74
2022/07/28 09:12:12;;;;;;;;;;;24.30;46.90;;;;;;490646;240;1132;-74
2022/07/28 09:14:14;;;;;;;;;;;24.30;46.90;;;;;;490739;240;1197;-73
2022/07/28 09:16:15;;;;;;;;;;;24.30;47.10;;;;;;490893;240;1304;-73
2022/07/28 09:18:16;;;;;;;;;;;24.30;47.00;;;;;;490850;240;1348;-73
2022/07/28 09:20:18;;;;;;;;;;;24.30;46.80;;;;;;490746;240;1137;-73
2022/07/28 09:22:19;;;;;;;;;;;24.40;46.90;;;;;;490725;240;2128;-74
2022/07/28 09:24:21;;;;;;;;;;;24.30;46.90;;;;;;490757;240;1047;-74
2022/07/28 09:26:22;;;;;;;;;;;24.30;47.00;;;;;;490812;240;1103;-74
2022/07/28 09:28:23;;;;;;;;;;;24.30;47.00;;;;;;490806;240;1072;-74
2022/07/28 09:30:25;;;;;;;;;;;24.30;46.90;;;;;;490809;240;1041;-74
2022/07/28 09:32:26;;;;;;;;;;;24.30;47.00;;;;;;490746;240;1215;-74
2022/07/28 09:34:28;;;;;;;;;;;24.30;47.00;;;;;;490825;240;1032;-74
2022/07/28 09:36:29;;;;;;;;;;;24.30;47.00;;;;;;490762;240;2249;-73
2022/07/28 09:38:30;;;;;;;;;;;24.30;47.10;;;;;;490741;240;1061;-74
2022/07/28 09:40:31;;;;;;;;;;;24.30;47.20;;;;;;490941;240;1011;-74
2022/07/28 09:42:33;;;;;;;;;;;24.30;47.10;;;;;;490871;240;2183;-73
2022/07/28 09:44:34;;;;;;;;;;;24.40;47.00;;;;;;490868;240;1115;-74
2022/07/28 09:46:35;;;;;;;;;;;24.40;46.90;;;;;;490816;240;1152;-74
2022/07/28 09:48:37;;;;;;;;;;;24.40;46.90;;;;;;490853;240;1150;-74
2022/07/28 09:50:38;;;;;;;;;;;24.40;46.80;;;;;;490681;240;1236;-73
2022/07/28 09:52:39;;;;;;;;;;;24.40;46.70;;;;;;490576;240;1286;-73
2022/07/28 09:54:41;;;;;;;;;;;24.40;46.80;;;;;;490568;240;1207;-73
2022/07/28 09:56:42;;;;;;;;;;;24.40;46.70;;;;;;490582;240;1099;-74
2022/07/28 09:58:44;;;;;;;;;;;24.40;46.80;;;;;;490615;240;1070;-74
2022/07/28 10:00:45;;;;;;;;;;;24.40;47.00;;;;;;490836;240;1083;-74
2022/07/28 10:02:46;;;;;;;;;;;24.50;47.00;;;;;;490835;240;2188;-74
2022/07/28 10:04:48;;;;;;;;;;;24.50;46.90;;;;;;490870;240;1098;-74
2022/07/28 10:06:49;;;;;;;;;;;24.50;47.00;;;;;;490917;240;1210;-73
2022/07/28 10:08:50;;;;;;;;;;;24.40;47.00;;;;;;490858;240;1299;-74
2022/07/28 10:10:52;;;;;;;;;;;24.40;47.10;;;;;;490902;240;1124;-74
2022/07/28 10:12:54;;;;;;;;;;;24.40;47.20;;;;;;490827;240;1142;-74
2022/07/28 10:14:54;;;;;;;;;;;24.40;47.10;;;;;;490916;240;1373;-73
2022/07/28 10:16:56;;;;;;;;;;;24.50;47.00;;;;;;490841;240;1260;-73
2022/07/28 10:18:58;;;;;;;;;;;24.40;47.00;;;;;;490912;240;1209;-74
2022/07/28 10:20:58;;;;;;;;;;;24.50;46.90;;;;;;490834;240;2243;-74
2022/07/28 10:23:00;;;;;;;;;;;24.50;46.90;;;;;;490966;240;2116;-73
2022/07/28 10:25:01;;;;;;;;;;;24.50;46.80;;;;;;490833;240;1195;-75
2022/07/28 10:27:02;;;;;;;;;;;24.50;46.80;;;;;;490665;240;1091;-74
2022/07/28 10:29:04;;;;;;;;;;;24.50;46.90;;;;;;490781;240;1353;-74
2022/07/28 10:31:05;;;;;;;;;;;24.50;47.00;;;;;;490829;240;1140;-73
2022/07/28 10:33:06;;;;;;;;;;;24.50;46.90;;;;;;490858;240;1219;-74
2022/07/28 10:35:08;;;;;;;;;;;24.50;47.00;;;;;;490959;240;1194;-78
2022/07/28 10:37:09;;;;;;;;;;;24.40;47.00;;;;;;490814;240;1216;-76
2022/07/28 10:39:10;;;;;;;;;;;24.40;47.10;;;;;;490930;240;1175;-76
2022/07/28 10:41:12;;;;;;;;;;;24.40;47.10;;;;;;490812;240;1231;-74
2022/07/28 10:43:13;;;;;;;;;;;24.40;47.20;;;;;;490717;240;2167;-75
2022/07/28 10:45:14;;;;;;;;;;;24.40;47.10;;;;;;490834;240;1170;-74
2022/07/28 10:47:16;;;;;;;;;;;24.40;47.10;;;;;;490933;240;1112;-74
2022/07/28 10:49:17;;;;;;;;;;;24.40;47.10;;;;;;491186;240;1168;-75
2022/07/28 10:51:18;;;;;;;;;;;24.40;47.10;;;;;;490756;240;1330;-74
2022/07/28 10:53:20;;;;;;;;;;;24.50;47.10;;;;;;490741;240;1179;-74
2022/07/28 10:55:21;;;;;;;;;;;24.50;47.10;;;;;;490720;240;1107;-75
2022/07/28 10:57:22;;;;;;;;;;;24.40;47.00;;;;;;490842;240;1100;-75
2022/07/28 10:59:24;;;;;;;;;;;24.40;46.90;;;;;;490773;240;1036;-74
2022/07/28 11:01:25;;;;;;;;;;;24.50;47.00;;;;;;490684;239;1354;-74
2022/07/28 11:03:26;;;;;;;;;;;24.40;46.90;;;;;;490629;240;2199;-74
2022/07/28 11:05:28;;;;;;;;;;;24.50;46.90;;;;;;490769;240;1069;-74
2022/07/28 11:07:29;;;;;;;;;;;24.50;47.00;;;;;;490792;240;1189;-74
2022/07/28 11:09:30;;;;;;;;;;;24.50;47.00;;;;;;490750;240;1043;-74
2022/07/28 11:11:32;;;;;;;;;;;24.50;46.90;;;;;;490562;240;1079;-74
2022/07/28 11:13:34;;;;;;;;;;;24.50;46.90;;;;;;490704;240;1078;-74
2022/07/28 11:15:34;;;;;;;;;;;24.50;47.00;;;;;;490905;240;2039;-74
2022/07/28 11:17:36;;;;;;;;;;;24.40;47.00;;;;;;490889;240;1107;-74
2022/07/28 11:19:37;;;;;;;;;;;24.40;47.10;;;;;;490821;240;1203;-73
2022/07/28 11:21:38;;;;;;;;;;;24.40;47.10;;;;;;490812;240;1346;-73
2022/07/28 11:23:40;;;;;;;;;;;24.40;47.00;;;;;;490785;240;2188;-73
2022/07/28 11:25:41;;;;;;;;;;;24.40;47.00;;;;;;490816;240;1642;-73
2022/07/28 11:27:44;;;;;;;;;;;24.40;47.00;;;;;;490695;240;1163;-73
2022/07/28 11:29:44;;;;;;;;;;;24.50;46.90;;;;;;490800;240;2211;-73
2022/07/28 11:31:46;;;;;;;;;;;24.40;46.80;;;;;;490624;240;1264;-73
2022/07/28 11:33:47;;;;;;;;;;;24.50;46.90;;;;;;490611;240;1179;-72
2022/07/28 11:35:48;;;;;;;;;;;24.40;46.80;;;;;;490750;240;1138;-72
2022/07/28 11:37:50;;;;;;;;;;;24.50;46.80;;;;;;490601;240;1078;-72
2022/07/28 11:39:51;;;;;;;;;;;24.40;46.80;;;;;;490728;240;1075;-72
2022/07/28 11:41:52;;;;;;;;;;;24.50;46.90;;;;;;490560;240;1149;-72
2022/07/28 11:43:54;;;;;;;;;;;24.60;46.60;;;;;;490598;240;2192;-72
2022/07/28 11:45:55;;;;;;;;;;;24.50;46.70;;;;;;490595;240;1053;-72
2022/07/28 11:47:56;;;;;;;;;;;24.60;46.50;;;;;;490547;240;1041;-73
2022/07/28 11:49:58;;;;;;;;;;;24.80;46.30;;;;;;490544;240;1212;-73
2022/07/28 11:51:59;;;;;;;;;;;24.80;45.90;;;;;;490562;240;1289;-73
2022/07/28 11:54:00;;;;;;;;;;;24.90;45.80;;;;;;490615;240;1182;-73
2022/07/28 11:56:02;;;;;;;;;;;24.90;45.90;;;;;;490701;240;1200;-73
2022/07/28 11:58:05;;;;;;;;;;;24.60;45.80;;;;;;490674;240;1186;-73
2022/07/28 12:00:05;;;;;;;;;;;24.70;46.20;;;;;;490689;240;2204;-73